Time;durP1;ratioP1;P1;durP2;ratioP2;P2;SDS_P1;SDS_P2;PMS_P1;PMS_P2;Temp;Humidity;BMP_temperature;BMP_pressure;BME280_temperature;BME280_humidity;BME280_pressure;Samples;Min_cycle;Max_cycle;Signal;HPM_P1;HPM_P2
2023/06/11 00:00:15;;;;;;;10.60;7.32;;;;;;;;;;4918794;29;20032;-81
2023/06/11 00:02:42;;;;;;;7.97;6.25;;;;;;;;;;4925182;29;20109;-82
2023/06/11 00:05:09;;;;;;;8.00;7.15;;;;;;;;;;4937376;29;20024;-81
2023/06/11 00:07:36;;;;;;;7.60;6.80;;;;;;;;;;4939337;29;20021;-82
2023/06/11 00:10:03;;;;;;;9.85;7.22;;;;;;;;;;4923417;29;20024;-82
2023/06/11 00:12:32;;;;;;;11.77;7.53;;;;;;;;;;4920545;29;20070;-81
2023/06/11 00:15:03;;;;;;;8.88;6.90;;;;;;;;;;4908922;29;20016;-82
2023/06/11 00:17:35;;;;;;;9.05;6.82;;;;;;;;;;4939673;29;20116;-81
2023/06/11 00:20:03;;;;;;;10.20;7.30;;;;;;;;;;4939714;29;20027;-83
2023/06/11 00:22:31;;;;;;;9.45;7.38;;;;;;;;;;4923467;29;20088;-81
2023/06/11 00:25:00;;;;;;;8.20;6.35;;;;;;;;;;4939085;29;20020;-81
2023/06/11 00:27:37;;;;;;;9.90;6.32;;;;;;;;;;4921232;29;20028;-82
2023/06/11 00:30:06;;;;;;;16.40;7.28;;;;;;;;;;4958468;28;20035;-82
2023/06/11 00:32:34;;;;;;;10.27;6.40;;;;;;;;;;4958542;28;20024;-82
2023/06/11 00:35:06;;;;;;;11.13;6.68;;;;;;;;;;4957933;28;20126;-82
2023/06/11 00:37:35;;;;;;;7.07;5.72;;;;;;;;;;4952610;28;20027;-82
2023/06/11 00:40:02;;;;;;;8.88;6.38;;;;;;;;;;4992813;28;20031;-81
2023/06/11 00:42:33;;;;;;;9.68;7.10;;;;;;;;;;4942919;28;20034;-82
2023/06/11 00:45:03;;;;;;;12.63;6.88;;;;;;;;;;4992644;28;20043;-83
2023/06/11 00:47:36;;;;;;;11.60;6.88;;;;;;;;;;4960035;28;20027;-82
2023/06/11 00:50:05;;;;;;;13.65;6.90;;;;;;;;;;4978701;28;20065;-81
2023/06/11 00:52:31;;;;;;;8.43;6.28;;;;;;;;;;4960917;28;20015;-81
2023/06/11 00:54:57;;;;;;;8.38;6.40;;;;;;;;;;4992578;28;20015;-82
2023/06/11 00:57:26;;;;;;;10.02;6.30;;;;;;;;;;4979001;28;20023;-81
2023/06/11 00:59:57;;;;;;;9.10;6.68;;;;;;;;;;4963822;28;20030;-81
2023/06/11 01:02:57;;;;;;;6.95;6.13;;;;;;;;;;4987344;28;20103;-81
2023/06/11 01:05:25;;;;;;;7.60;5.80;;;;;;;;;;4917254;29;20021;-82
2023/06/11 01:07:55;;;;;;;8.57;6.25;;;;;;;;;;4876651;29;20038;-81
2023/06/11 01:10:23;;;;;;;6.90;5.85;;;;;;;;;;4865374;29;20045;-81
2023/06/11 01:12:49;;;;;;;9.00;5.95;;;;;;;;;;4881789;29;20085;-82
2023/06/11 01:15:15;;;;;;;12.18;6.82;;;;;;;;;;4878162;29;20055;-81
2023/06/11 01:17:53;;;;;;;7.95;5.75;;;;;;;;;;4866732;29;20033;-81
2023/06/11 01:20:49;;;;;;;9.20;5.68;;;;;;;;;;4877373;29;20049;-81
2023/06/11 01:23:35;;;;;;;6.72;5.47;;;;;;;;;;4902355;29;20029;-81
2023/06/11 01:26:08;;;;;;;8.52;5.75;;;;;;;;;;4904525;29;20037;-82
2023/06/11 01:28:36;;;;;;;5.88;5.28;;;;;;;;;;4904838;29;20059;-83
2023/06/11 01:31:07;;;;;;;10.50;5.72;;;;;;;;;;4886859;29;20025;-81
2023/06/11 01:33:35;;;;;;;6.90;5.65;;;;;;;;;;4874019;29;20036;-81
2023/06/11 01:36:05;;;;;;;8.93;6.13;;;;;;;;;;4898698;29;20029;-82
2023/06/11 01:41:35;;;;;;;10.10;5.78;;;;;;;;;;4936181;23;20037;-83
2023/06/11 01:44:04;;;;;;;7.00;5.57;;;;;;;;;;5006336;28;20042;-81
2023/06/11 01:46:39;;;;;;;7.68;6.03;;;;;;;;;;5040815;28;20313;-81
2023/06/11 01:49:08;;;;;;;6.70;5.97;;;;;;;;;;5025560;28;20016;-82
2023/06/11 01:51:36;;;;;;;11.07;6.28;;;;;;;;;;5021229;28;20058;-81
2023/06/11 01:54:05;;;;;;;11.00;5.97;;;;;;;;;;5020245;28;20120;-81
2023/06/11 01:56:38;;;;;;;7.50;6.13;;;;;;;;;;4995346;28;20057;-81
2023/06/11 01:59:04;;;;;;;9.38;6.18;;;;;;;;;;5026067;28;20045;-80
2023/06/11 02:01:36;;;;;;;9.27;6.18;;;;;;;;;;5025961;28;20041;-82
2023/06/11 02:04:04;;;;;;;6.85;5.57;;;;;;;;;;4997755;28;20042;-81
2023/06/11 02:06:31;;;;;;;7.90;6.28;;;;;;;;;;5034802;28;20102;-81
2023/06/11 02:08:57;;;;;;;8.75;6.13;;;;;;;;;;5037732;28;20016;-81
2023/06/11 02:11:24;;;;;;;7.72;5.88;;;;;;;;;;5040910;28;20097;-81
2023/06/11 02:14:01;;;;;;;8.90;6.13;;;;;;;;;;5047902;23;20030;-81
2023/06/11 02:16:32;;;;;;;7.85;5.55;;;;;;;;;;4990965;28;20020;-82
2023/06/11 02:19:01;;;;;;;7.88;6.20;;;;;;;;;;4983744;28;20105;-81
2023/06/11 02:21:28;;;;;;;9.23;6.20;;;;;;;;;;5000419;28;20035;-80
2023/06/11 02:23:56;;;;;;;10.95;7.50;;;;;;;;;;4999044;28;20104;-81
2023/06/11 02:26:25;;;;;;;6.80;5.57;;;;;;;;;;4965812;28;20027;-81
2023/06/11 02:28:56;;;;;;;10.88;6.05;;;;;;;;;;4981238;28;20027;-82
2023/06/11 02:31:23;;;;;;;6.60;5.72;;;;;;;;;;4988982;28;20019;-80
2023/06/11 02:33:49;;;;;;;6.60;5.90;;;;;;;;;;4980231;28;20086;-81
2023/06/11 02:36:17;;;;;;;8.50;6.75;;;;;;;;;;4997243;28;20043;-81
2023/06/11 02:38:53;;;;;;;8.88;5.60;;;;;;;;;;4994378;28;20050;-81
2023/06/11 02:41:24;;;;;;;7.50;6.45;;;;;;;;;;4972953;28;20033;-81
2023/06/11 02:43:51;;;;;;;9.00;6.63;;;;;;;;;;4991957;28;20034;-82
2023/06/11 02:46:27;;;;;;;8.30;5.65;;;;;;;;;;4995045;28;20035;-82
2023/06/11 02:48:56;;;;;;;9.05;5.97;;;;;;;;;;4987133;28;20019;-81
2023/06/11 02:51:23;;;;;;;7.90;6.03;;;;;;;;;;4992452;28;20540;-82
2023/06/11 02:53:54;;;;;;;10.88;6.32;;;;;;;;;;4993143;28;20054;-82
2023/06/11 02:56:26;;;;;;;8.90;6.28;;;;;;;;;;4990787;28;20086;-83
2023/06/11 02:59:15;;;;;;;8.38;5.75;;;;;;;;;;4999096;28;20030;-82
2023/06/11 03:01:49;;;;;;;10.20;6.75;;;;;;;;;;4976560;28;20044;-81
2023/06/11 03:04:16;;;;;;;7.32;6.00;;;;;;;;;;4978096;28;20020;-81
2023/06/11 03:06:45;;;;;;;6.18;5.57;;;;;;;;;;4935967;29;20039;-81
2023/06/11 03:09:16;;;;;;;11.10;5.93;;;;;;;;;;4915552;29;20047;-82
2023/06/11 03:11:45;;;;;;;6.72;5.72;;;;;;;;;;4937635;29;20059;-81
2023/06/11 03:16:57;;;;;;;12.25;6.13;;;;;;;;;;4942626;28;20033;-81
2023/06/11 03:19:26;;;;;;;8.25;6.13;;;;;;;;;;4912137;29;20064;-81
2023/06/11 03:22:00;;;;;;;8.43;5.75;;;;;;;;;;4941006;29;20052;-82
2023/06/11 03:24:28;;;;;;;11.05;6.25;;;;;;;;;;4946375;28;20019;-81
2023/06/11 03:26:59;;;;;;;7.70;5.95;;;;;;;;;;4922254;28;20047;-81
2023/06/11 03:29:28;;;;;;;13.52;5.80;;;;;;;;;;4942896;28;20016;-82
2023/06/11 03:32:07;;;;;;;8.77;6.30;;;;;;;;;;4927181;28;20044;-81
2023/06/11 03:34:43;;;;;;;11.77;6.40;;;;;;;;;;4939201;28;20027;-81
2023/06/11 03:37:12;;;;;;;11.70;7.18;;;;;;;;;;4966404;28;20070;-81
2023/06/11 03:39:47;;;;;;;9.32;6.07;;;;;;;;;;4962261;28;20027;-81
2023/06/11 03:42:23;;;;;;;7.55;6.45;;;;;;;;;;4963121;28;20038;-81
2023/06/11 03:44:55;;;;;;;7.60;6.05;;;;;;;;;;5204667;23;20039;-80
2023/06/11 03:47:22;;;;;;;11.48;6.32;;;;;;;;;;4994346;28;20021;-80
2023/06/11 03:50:05;;;;;;;8.13;6.47;;;;;;;;;;4981027;28;20023;-81
2023/06/11 03:52:31;;;;;;;10.70;6.10;;;;;;;;;;4981515;28;20042;-82
2023/06/11 03:55:19;;;;;;;9.90;6.45;;;;;;;;;;4977732;28;20034;-82
2023/06/11 03:57:51;;;;;;;13.57;6.95;;;;;;;;;;4995472;28;20045;-81
2023/06/11 04:00:19;;;;;;;10.82;7.40;;;;;;;;;;4982765;28;20083;-82
2023/06/11 04:02:58;;;;;;;8.05;6.32;;;;;;;;;;4986158;28;20011;-82
2023/06/11 04:05:24;;;;;;;10.18;6.38;;;;;;;;;;4998169;28;20011;-81
2023/06/11 04:07:54;;;;;;;8.10;6.18;;;;;;;;;;5002345;28;20019;-81
2023/06/11 04:10:23;;;;;;;8.65;6.28;;;;;;;;;;4963685;28;20043;-81
2023/06/11 04:13:03;;;;;;;7.97;6.07;;;;;;;;;;4988387;28;20039;-82
2023/06/11 04:15:29;;;;;;;7.10;6.38;;;;;;;;;;4996123;28;20025;-81
2023/06/11 04:17:58;;;;;;;10.38;6.32;;;;;;;;;;4992857;28;20025;-81
2023/06/11 04:20:24;;;;;;;11.40;5.78;;;;;;;;;;4951280;28;20043;-81
2023/06/11 04:22:50;;;;;;;10.20;6.57;;;;;;;;;;4958438;28;20031;-81
2023/06/11 04:25:21;;;;;;;7.10;6.18;;;;;;;;;;4934590;29;20056;-82
2023/06/11 04:27:47;;;;;;;8.70;5.72;;;;;;;;;;4920989;29;20028;-81
2023/06/11 04:30:14;;;;;;;6.95;6.05;;;;;;;;;;4938290;29;20032;-81
2023/06/11 04:32:41;;;;;;;10.68;5.90;;;;;;;;;;4913768;29;20024;-81
2023/06/11 04:35:08;;;;;;;7.45;5.45;;;;;;;;;;4922985;29;20020;-81
2023/06/11 04:37:39;;;;;;;9.93;5.82;;;;;;;;;;4888930;29;20031;-81
2023/06/11 04:40:10;;;;;;;11.40;6.00;;;;;;;;;;4922399;29;20028;-81
2023/06/11 04:42:43;;;;;;;9.18;5.95;;;;;;;;;;4934343;29;20276;-81
2023/06/11 04:45:18;;;;;;;10.43;5.78;;;;;;;;;;4995764;23;20039;-81
2023/06/11 04:47:58;;;;;;;9.27;5.45;;;;;;;;;;4946148;28;20070;-81
2023/06/11 04:50:24;;;;;;;8.40;6.20;;;;;;;;;;4991000;28;20098;-82
2023/06/11 04:52:51;;;;;;;9.00;5.50;;;;;;;;;;4990650;28;20111;-81
2023/06/11 04:55:21;;;;;;;10.80;5.85;;;;;;;;;;4976421;28;20015;-81
2023/06/11 04:57:51;;;;;;;8.68;6.25;;;;;;;;;;4978380;28;20039;-82
2023/06/11 05:00:19;;;;;;;11.93;5.75;;;;;;;;;;4961539;28;20016;-82
2023/06/11 05:02:47;;;;;;;7.13;5.18;;;;;;;;;;4979086;28;20019;-81
2023/06/11 05:05:17;;;;;;;8.52;6.47;;;;;;;;;;4975248;28;20039;-83
2023/06/11 05:07:48;;;;;;;7.20;5.93;;;;;;;;;;4999213;28;20023;-82
2023/06/11 05:10:15;;;;;;;8.52;5.82;;;;;;;;;;4983206;28;20073;-81
2023/06/11 05:12:41;;;;;;;9.85;6.20;;;;;;;;;;4995571;28;20007;-84
2023/06/11 05:15:08;;;;;;;8.48;5.78;;;;;;;;;;4994070;28;20046;-82
2023/06/11 05:17:35;;;;;;;7.65;5.82;;;;;;;;;;4979914;28;20038;-82
2023/06/11 05:20:05;;;;;;;7.63;6.70;;;;;;;;;;4979623;28;20007;-82
2023/06/11 05:22:33;;;;;;;9.05;5.65;;;;;;;;;;4979690;28;20027;-81
2023/06/11 05:24:59;;;;;;;9.55;5.63;;;;;;;;;;4982158;28;20041;-84
2023/06/11 05:27:31;;;;;;;8.35;6.22;;;;;;;;;;4980285;28;20096;-84
2023/06/11 05:29:59;;;;;;;10.93;7.65;;;;;;;;;;4992901;28;20054;-83
2023/06/11 05:32:31;;;;;;;13.57;9.20;;;;;;;;;;4975396;28;20071;-83
2023/06/11 05:34:57;;;;;;;7.70;6.88;;;;;;;;;;4991432;28;20110;-84
2023/06/11 05:37:23;;;;;;;5.85;5.07;;;;;;;;;;4977776;28;20042;-84
2023/06/11 05:39:50;;;;;;;7.60;6.20;;;;;;;;;;4976196;28;20116;-85
2023/06/11 05:42:18;;;;;;;7.78;5.50;;;;;;;;;;4977731;28;20510;-84
2023/06/11 05:44:44;;;;;;;8.18;6.43;;;;;;;;;;4988498;28;20252;-84
2023/06/11 05:47:11;;;;;;;7.53;6.13;;;;;;;;;;4975290;28;20238;-85
2023/06/11 05:49:37;;;;;;;8.18;5.72;;;;;;;;;;4978162;28;20066;-83
2023/06/11 05:52:04;;;;;;;6.88;5.85;;;;;;;;;;4975187;28;20040;-85
2023/06/11 05:54:30;;;;;;;9.40;6.78;;;;;;;;;;4980126;28;20039;-86
2023/06/11 05:56:58;;;;;;;8.02;5.68;;;;;;;;;;4959409;29;21915;-85
2023/06/11 05:59:23;;;;;;;8.07;6.75;;;;;;;;;;4971426;28;20027;-87
2023/06/11 06:01:50;;;;;;;7.90;5.53;;;;;;;;;;4973790;28;20027;-86
2023/06/11 06:04:31;;;;;;;6.40;5.50;;;;;;;;;;4948520;28;20027;-90
2023/06/11 06:06:57;;;;;;;7.32;6.03;;;;;;;;;;4964583;28;20035;-91
2023/06/11 06:09:23;;;;;;;9.15;5.47;;;;;;;;;;4960268;28;20582;-91
2023/06/11 06:11:56;;;;;;;13.18;6.15;;;;;;;;;;4947605;29;20141;-90
2023/06/11 06:14:21;;;;;;;;;;;;;;;;;;4963879;28;20117;-92
2023/06/11 06:16:48;;;;;;;8.55;5.90;;;;;;;;;;4949719;28;19946;-89
2023/06/11 06:19:16;;;;;;;6.90;5.38;;;;;;;;;;4951848;28;20110;-90
2023/06/11 06:21:44;;;;;;;9.38;6.15;;;;;;;;;;4962266;28;20119;-86
2023/06/11 06:24:11;;;;;;;9.60;4.90;;;;;;;;;;4964723;28;20110;-92
2023/06/11 06:26:43;;;;;;;7.70;5.40;;;;;;;;;;4967118;28;20148;-92
2023/06/11 06:29:12;;;;;;;11.65;6.15;;;;;;;;;;4968360;28;20038;-94
2023/06/11 06:31:38;;;;;;;7.95;5.40;;;;;;;;;;4964411;28;20336;-93
2023/06/11 06:34:04;;;;;;;8.30;5.70;;;;;;;;;;4966407;28;20110;-92
2023/06/11 06:36:30;;;;;;;8.18;5.22;;;;;;;;;;4963561;28;20032;-92
2023/06/11 06:39:00;;;;;;;10.27;5.97;;;;;;;;;;4965988;28;20058;-92
2023/06/11 06:41:27;;;;;;;6.22;4.90;;;;;;;;;;4964769;28;20050;-91
2023/06/11 06:43:53;;;;;;;6.90;5.53;;;;;;;;;;4947140;28;20055;-93
2023/06/11 06:46:19;;;;;;;7.10;5.63;;;;;;;;;;4961980;28;20291;-91
2023/06/11 06:48:45;;;;;;;5.97;5.05;;;;;;;;;;4965420;28;20070;-92
2023/06/11 06:51:11;;;;;;;7.03;6.00;;;;;;;;;;4960478;28;20118;-91
2023/06/11 06:53:37;;;;;;;5.07;4.57;;;;;;;;;;4965781;28;20027;-92
2023/06/11 06:56:05;;;;;;;5.55;4.82;;;;;;;;;;4946060;28;20119;-91
2023/06/11 06:58:32;;;;;;;7.93;6.15;;;;;;;;;;4963315;28;20024;-92
2023/06/11 07:00:58;;;;;;;6.88;5.40;;;;;;;;;;4962011;28;20093;-90
2023/06/11 07:03:24;;;;;;;5.88;5.10;;;;;;;;;;4961830;28;20137;-90
2023/06/11 07:05:59;;;;;;;7.50;5.38;;;;;;;;;;4942815;28;20121;-92
2023/06/11 07:08:29;;;;;;;10.55;5.45;;;;;;;;;;4964174;28;20027;-89
2023/06/11 07:10:58;;;;;;;6.72;5.65;;;;;;;;;;4964948;28;20178;-86
2023/06/11 07:13:24;;;;;;;7.10;4.97;;;;;;;;;;4949544;29;20023;-89
2023/06/11 07:15:50;;;;;;;6.53;5.63;;;;;;;;;;4963174;28;20027;-88
2023/06/11 07:18:20;;;;;;;5.65;5.05;;;;;;;;;;4948507;29;20111;-85
2023/06/11 07:20:46;;;;;;;11.82;5.97;;;;;;;;;;4962995;28;20039;-87
2023/06/11 07:23:12;;;;;;;7.50;5.50;;;;;;;;;;4948909;29;20032;-90
2023/06/11 07:25:38;;;;;;;6.07;5.47;;;;;;;;;;4960973;28;20046;-84
2023/06/11 07:28:05;;;;;;;7.78;5.07;;;;;;;;;;4948492;29;20024;-86
2023/06/11 07:30:35;;;;;;;6.18;5.25;;;;;;;;;;4961920;28;20031;-89
2023/06/11 07:33:01;;;;;;;7.18;5.05;;;;;;;;;;4961342;28;20027;-88
2023/06/11 07:35:27;;;;;;;7.18;5.32;;;;;;;;;;4950364;29;20086;-83
2023/06/11 07:37:56;;;;;;;6.28;5.13;;;;;;;;;;4947358;28;20062;-89
2023/06/11 07:40:24;;;;;;;10.73;5.68;;;;;;;;;;4943861;28;20139;-83
2023/06/11 07:42:50;;;;;;;7.53;5.10;;;;;;;;;;4961745;28;20039;-82
2023/06/11 07:45:16;;;;;;;4.65;4.25;;;;;;;;;;4946068;29;20067;-85
2023/06/11 07:47:45;;;;;;;6.38;4.63;;;;;;;;;;4944593;28;20037;-82
2023/06/11 07:50:11;;;;;;;6.30;5.32;;;;;;;;;;4946435;29;20097;-84
2023/06/11 07:52:37;;;;;;;10.10;5.28;;;;;;;;;;4946536;29;20027;-83
2023/06/11 07:55:03;;;;;;;7.65;5.28;;;;;;;;;;4946665;29;20028;-82
2023/06/11 07:57:29;;;;;;;8.77;4.90;;;;;;;;;;4960497;28;20114;-85
2023/06/11 07:59:56;;;;;;;9.02;5.43;;;;;;;;;;4936931;28;20039;-88
2023/06/11 08:02:22;;;;;;;5.57;4.93;;;;;;;;;;4952203;28;20031;-86
2023/06/11 08:04:48;;;;;;;6.10;5.15;;;;;;;;;;4937005;29;20036;-85
2023/06/11 08:07:14;;;;;;;8.27;4.78;;;;;;;;;;4951356;28;20036;-87
2023/06/11 08:09:43;;;;;;;6.25;4.80;;;;;;;;;;4937006;29;20050;-83
2023/06/11 08:12:10;;;;;;;7.10;4.53;;;;;;;;;;4954773;28;20066;-94
2023/06/11 08:14:39;;;;;;;5.90;4.40;;;;;;;;;;4940643;28;20475;-89
2023/06/11 08:17:05;;;;;;;6.65;4.60;;;;;;;;;;4957704;28;20045;-94
2023/06/11 08:19:31;;;;;;;7.00;4.78;;;;;;;;;;4957944;28;20031;-94
2023/06/11 08:22:00;;;;;;;7.68;4.63;;;;;;;;;;4957004;28;20444;-93
2023/06/11 08:24:26;;;;;;;6.07;5.28;;;;;;;;;;4941569;28;20031;-91
2023/06/11 08:26:52;;;;;;;6.78;4.90;;;;;;;;;;4956658;28;20039;-86
2023/06/11 08:29:20;;;;;;;7.72;5.45;;;;;;;;;;4957751;28;20074;-91
2023/06/11 08:31:46;;;;;;;6.28;4.53;;;;;;;;;;4955756;28;20031;-89
2023/06/11 08:34:12;;;;;;;5.55;4.65;;;;;;;;;;4958432;28;20038;-91
2023/06/11 08:36:40;;;;;;;7.35;4.60;;;;;;;;;;4957231;28;20023;-85
2023/06/11 08:39:06;;;;;;;6.97;4.90;;;;;;;;;;4958950;28;20081;-89
2023/06/11 08:41:32;;;;;;;5.03;4.45;;;;;;;;;;4958307;28;20040;-86
2023/06/11 08:43:59;;;;;;;8.80;4.40;;;;;;;;;;4941491;29;20062;-91
2023/06/11 08:46:25;;;;;;;5.13;4.40;;;;;;;;;;4960507;28;20094;-93
2023/06/11 08:49:03;;;;;;;6.57;4.78;;;;;;;;;;4963275;28;20034;-96
2023/06/11 08:51:35;;;;;;;8.77;4.95;;;;;;;;;;4963800;28;20473;-94
2023/06/11 08:54:01;;;;;;;5.95;5.30;;;;;;;;;;4963513;28;20045;-96
2023/06/11 08:56:28;;;;;;;6.68;4.63;;;;;;;;;;4963349;28;20895;-89
2023/06/11 08:58:54;;;;;;;6.85;5.55;;;;;;;;;;4961436;28;20027;-96
2023/06/11 09:01:22;;;;;;;5.55;4.80;;;;;;;;;;4960344;28;20027;-96
2023/06/11 09:03:48;;;;;;;6.18;4.75;;;;;;;;;;4963341;28;20031;-96
2023/06/11 09:06:17;;;;;;;6.88;4.57;;;;;;;;;;4966235;28;20062;-95
2023/06/11 09:08:43;;;;;;;5.10;4.28;;;;;;;;;;4966658;28;20105;-96
2023/06/11 09:11:09;;;;;;;4.70;4.10;;;;;;;;;;4968393;28;20046;-93
2023/06/11 09:13:35;;;;;;;9.90;4.55;;;;;;;;;;4962293;28;20035;-96
2023/06/11 09:16:01;;;;;;;5.40;4.10;;;;;;;;;;4960587;28;20036;-96
2023/06/11 09:18:28;;;;;;;8.00;4.13;;;;;;;;;;4964023;28;20039;-96
2023/06/11 09:20:57;;;;;;;5.82;4.03;;;;;;;;;;4948383;29;20042;-94
2023/06/11 09:23:24;;;;;;;9.07;3.83;;;;;;;;;;4947307;29;20038;-94
2023/06/11 09:25:50;;;;;;;5.25;4.10;;;;;;;;;;4947337;28;20027;-96
2023/06/11 09:28:16;;;;;;;4.75;3.67;;;;;;;;;;4965443;28;20024;-94
2023/06/11 09:30:42;;;;;;;6.00;3.70;;;;;;;;;;4961644;28;20038;-96
2023/06/11 09:33:17;;;;;;;5.45;4.15;;;;;;;;;;4943402;28;20015;-96
2023/06/11 09:35:46;;;;;;;10.60;3.78;;;;;;;;;;4965889;28;20027;-96
2023/06/11 09:38:18;;;;;;;6.22;4.13;;;;;;;;;;4964119;28;20027;-96
2023/06/11 09:40:55;;;;;;;4.72;3.63;;;;;;;;;;4963317;28;20032;-92
2023/06/11 09:43:22;;;;;;;5.55;3.97;;;;;;;;;;4960817;28;20088;-95
2023/06/11 09:45:52;;;;;;;8.93;3.33;;;;;;;;;;4961838;28;20126;-96
2023/06/11 09:48:18;;;;;;;5.75;3.72;;;;;;;;;;4968427;28;20027;-94
2023/06/11 09:50:45;;;;;;;5.63;4.05;;;;;;;;;;4965502;28;20426;-95
2023/06/11 09:53:12;;;;;;;3.92;3.53;;;;;;;;;;4969224;28;20465;-93
2023/06/11 09:55:39;;;;;;;4.97;3.83;;;;;;;;;;4950265;29;20059;-94
2023/06/11 09:58:05;;;;;;;4.68;3.75;;;;;;;;;;4966631;28;20381;-95
2023/06/11 10:00:32;;;;;;;6.30;4.07;;;;;;;;;;4966260;28;20038;-94
2023/06/11 10:02:58;;;;;;;6.55;3.85;;;;;;;;;;4966745;28;20111;-95
2023/06/11 10:05:24;;;;;;;6.20;4.47;;;;;;;;;;4963464;28;20020;-92
2023/06/11 10:07:53;;;;;;;4.28;3.88;;;;;;;;;;4962198;28;20050;-94
2023/06/11 10:10:21;;;;;;;5.40;3.53;;;;;;;;;;4970493;28;20035;-95
2023/06/11 10:12:54;;;;;;;6.57;3.92;;;;;;;;;;4952001;28;20090;-94
2023/06/11 10:15:24;;;;;;;4.35;3.95;;;;;;;;;;4967226;28;20063;-93
2023/06/11 10:17:51;;;;;;;4.45;3.28;;;;;;;;;;4950234;28;20038;-93
2023/06/11 10:20:21;;;;;;;5.72;4.15;;;;;;;;;;4967165;28;20060;-93
2023/06/11 10:22:47;;;;;;;6.10;4.20;;;;;;;;;;4943934;28;20087;-90
2023/06/11 10:25:13;;;;;;;4.95;4.03;;;;;;;;;;4968405;28;20110;-93
2023/06/11 10:27:42;;;;;;;5.95;4.22;;;;;;;;;;4949148;28;20028;-92
2023/06/11 10:30:08;;;;;;;6.13;3.92;;;;;;;;;;4964417;28;20040;-94
2023/06/11 10:32:35;;;;;;;5.32;3.70;;;;;;;;;;4964732;28;20423;-94
2023/06/11 10:35:04;;;;;;;4.05;3.65;;;;;;;;;;4967180;28;20082;-95
2023/06/11 10:37:31;;;;;;;7.35;3.67;;;;;;;;;;4964166;28;20019;-91
2023/06/11 10:39:58;;;;;;;6.82;4.10;;;;;;;;;;4965589;28;20041;-92
2023/06/11 10:42:24;;;;;;;7.18;3.50;;;;;;;;;;4963441;28;20025;-95
2023/06/11 10:44:51;;;;;;;5.78;3.70;;;;;;;;;;4945748;29;20082;-92
2023/06/11 10:47:18;;;;;;;6.38;3.80;;;;;;;;;;4965834;28;20086;-92
2023/06/11 10:49:44;;;;;;;10.43;3.50;;;;;;;;;;4969848;28;20023;-89
2023/06/11 10:52:10;;;;;;;7.10;4.10;;;;;;;;;;4961645;28;20055;-93
2023/06/11 10:54:37;;;;;;;7.78;4.18;;;;;;;;;;4968518;28;20042;-94
2023/06/11 10:57:03;;;;;;;6.85;3.90;;;;;;;;;;4949488;28;20034;-94
2023/06/11 10:59:31;;;;;;;6.65;4.28;;;;;;;;;;4964555;28;20090;-93
2023/06/11 11:01:57;;;;;;;6.45;3.53;;;;;;;;;;4965628;28;20039;-94
2023/06/11 11:04:24;;;;;;;6.20;3.97;;;;;;;;;;4961854;28;20028;-94
2023/06/11 11:07:03;;;;;;;9.00;3.90;;;;;;;;;;4948105;28;20031;-96
2023/06/11 11:09:29;;;;;;;4.43;3.90;;;;;;;;;;4949038;29;20023;-95
2023/06/11 11:11:59;;;;;;;5.72;3.55;;;;;;;;;;4960863;28;20043;-93
2023/06/11 11:14:27;;;;;;;8.43;3.65;;;;;;;;;;4962102;28;20031;-93
2023/06/11 11:16:53;;;;;;;5.32;4.15;;;;;;;;;;4966886;28;20038;-93
2023/06/11 11:19:25;;;;;;;9.48;4.00;;;;;;;;;;4946986;29;20027;-92
2023/06/11 11:21:55;;;;;;;6.68;4.45;;;;;;;;;;4946828;28;20033;-84
2023/06/11 11:24:21;;;;;;;5.82;4.35;;;;;;;;;;4964801;28;20035;-86
2023/06/11 11:26:47;;;;;;;6.40;3.83;;;;;;;;;;4950295;29;20042;-84
2023/06/11 11:29:13;;;;;;;7.43;4.32;;;;;;;;;;4966345;28;20043;-87
2023/06/11 11:31:40;;;;;;;5.68;3.80;;;;;;;;;;4949804;29;20175;-81
2023/06/11 11:34:06;;;;;;;9.32;4.63;;;;;;;;;;4961365;28;20031;-81
2023/06/11 11:36:32;;;;;;;6.65;3.90;;;;;;;;;;4950254;29;20035;-85
2023/06/11 11:39:09;;;;;;;12.73;5.05;;;;;;;;;;4962604;28;20035;-85
2023/06/11 11:41:44;;;;;;;6.03;4.47;;;;;;;;;;4948321;29;20035;-84
2023/06/11 11:44:10;;;;;;;5.55;4.43;;;;;;;;;;4965609;28;20055;-83
2023/06/11 11:46:37;;;;;;;4.35;3.85;;;;;;;;;;4964236;28;20411;-84
2023/06/11 11:49:03;;;;;;;5.65;3.88;;;;;;;;;;4965929;28;20105;-84
2023/06/11 11:51:29;;;;;;;6.32;4.05;;;;;;;;;;4964670;28;20114;-83
2023/06/11 11:53:55;;;;;;;5.55;4.30;;;;;;;;;;4946365;28;20049;-81
2023/06/11 11:56:21;;;;;;;6.40;4.00;;;;;;;;;;4963404;28;20520;-82
2023/06/11 11:58:47;;;;;;;5.53;4.10;;;;;;;;;;4964566;28;20015;-88
2023/06/11 12:01:21;;;;;;;11.00;4.00;;;;;;;;;;4964814;28;20483;-85
2023/06/11 12:03:55;;;;;;;4.45;4.03;;;;;;;;;;4951671;29;20765;-88
2023/06/11 12:06:24;;;;;;;5.43;4.13;;;;;;;;;;4963426;28;20032;-87
2023/06/11 12:08:55;;;;;;;9.32;4.85;;;;;;;;;;4959408;28;20027;-86
2023/06/11 12:11:21;;;;;;;4.60;3.92;;;;;;;;;;4940869;29;20043;-84
2023/06/11 12:13:50;;;;;;;7.13;3.70;;;;;;;;;;4935269;28;20031;-84
2023/06/11 12:16:16;;;;;;;5.15;4.03;;;;;;;;;;4950117;28;20042;-79
2023/06/11 12:18:42;;;;;;;6.80;4.18;;;;;;;;;;4938092;29;20031;-94
2023/06/11 12:21:08;;;;;;;5.60;4.07;;;;;;;;;;4957714;28;20035;-81
2023/06/11 12:23:34;;;;;;;7.63;3.85;;;;;;;;;;4942995;29;20624;-82
2023/06/11 12:26:01;;;;;;;21.67;4.88;;;;;;;;;;4940354;29;20031;-84
2023/06/11 12:28:29;;;;;;;5.40;4.03;;;;;;;;;;4959155;28;20091;-85
2023/06/11 12:30:56;;;;;;;4.10;3.70;;;;;;;;;;4941398;28;20043;-82
2023/06/11 12:33:22;;;;;;;4.97;4.15;;;;;;;;;;4943062;28;20150;-82
2023/06/11 12:35:48;;;;;;;6.57;4.50;;;;;;;;;;4943941;28;20859;-83
2023/06/11 12:38:15;;;;;;;5.45;3.38;;;;;;;;;;4951413;28;20024;-79
2023/06/11 12:40:41;;;;;;;8.02;3.70;;;;;;;;;;4954191;28;20035;-81
2023/06/11 12:43:07;;;;;;;4.72;3.83;;;;;;;;;;4937497;29;20031;-90
2023/06/11 12:45:37;;;;;;;6.32;3.97;;;;;;;;;;4936027;28;20042;-87
2023/06/11 12:48:03;;;;;;;8.50;3.80;;;;;;;;;;4953002;28;20042;-87
2023/06/11 12:50:29;;;;;;;5.28;3.60;;;;;;;;;;4952352;28;20070;-82
2023/06/11 12:52:56;;;;;;;8.88;4.20;;;;;;;;;;4951971;28;20031;-88
2023/06/11 12:55:24;;;;;;;8.88;3.92;;;;;;;;;;4953715;28;20027;-86
2023/06/11 12:57:50;;;;;;;5.78;3.85;;;;;;;;;;4935888;29;20039;-82
2023/06/11 13:00:17;;;;;;;6.85;4.07;;;;;;;;;;4937393;29;20031;-87
2023/06/11 13:02:43;;;;;;;4.55;3.47;;;;;;;;;;4951413;28;20066;-82
2023/06/11 13:05:09;;;;;;;4.90;3.85;;;;;;;;;;4939268;29;20054;-80
2023/06/11 13:07:38;;;;;;;6.85;3.88;;;;;;;;;;4951437;28;20721;-81
2023/06/11 13:10:04;;;;;;;3.88;3.53;;;;;;;;;;4951738;28;20039;-80
2023/06/11 13:12:30;;;;;;;5.53;4.00;;;;;;;;;;4939033;29;20032;-81
2023/06/11 13:14:56;;;;;;;5.22;4.40;;;;;;;;;;4934241;28;20118;-82
2023/06/11 13:17:25;;;;;;;7.10;4.38;;;;;;;;;;4953498;28;20146;-79
2023/06/11 13:19:55;;;;;;;4.95;3.85;;;;;;;;;;4941418;29;20349;-82
2023/06/11 13:22:21;;;;;;;4.75;3.92;;;;;;;;;;4943923;29;20131;-83
2023/06/11 13:24:47;;;;;;;10.80;3.95;;;;;;;;;;4942017;29;20036;-79
2023/06/11 13:27:13;;;;;;;8.07;4.45;;;;;;;;;;4955988;28;20097;-81
2023/06/11 13:29:45;;;;;;;4.95;4.03;;;;;;;;;;4941042;29;20039;-82
2023/06/11 13:32:11;;;;;;;5.63;4.40;;;;;;;;;;4940715;29;20114;-82
2023/06/11 13:34:37;;;;;;;7.88;4.32;;;;;;;;;;4941418;29;20067;-79
2023/06/11 13:37:03;;;;;;;5.18;3.83;;;;;;;;;;4940540;29;20031;-84
2023/06/11 13:39:32;;;;;;;7.57;4.10;;;;;;;;;;4957831;28;20943;-80
2023/06/11 13:41:58;;;;;;;5.72;4.15;;;;;;;;;;4955762;28;20347;-79
2023/06/11 13:44:24;;;;;;;5.35;4.50;;;;;;;;;;4938587;28;20655;-81
2023/06/11 13:46:50;;;;;;;5.95;3.90;;;;;;;;;;4938817;29;20038;-80
2023/06/11 13:49:16;;;;;;;7.55;4.85;;;;;;;;;;4939746;29;20074;-80
2023/06/11 13:51:42;;;;;;;6.75;4.60;;;;;;;;;;4940279;28;20071;-81
2023/06/11 13:54:08;;;;;;;6.97;4.60;;;;;;;;;;4940086;29;20110;-80
2023/06/11 13:56:34;;;;;;;4.47;4.07;;;;;;;;;;4938866;29;21643;-80
2023/06/11 13:59:03;;;;;;;6.03;4.60;;;;;;;;;;4953048;28;20040;-79
2023/06/11 14:01:28;;;;;;;5.70;4.03;;;;;;;;;;4940989;29;20039;-82
2023/06/11 14:03:57;;;;;;;6.72;4.88;;;;;;;;;;4939372;29;20449;-81
2023/06/11 14:06:23;;;;;;;6.55;4.22;;;;;;;;;;4938272;29;20468;-80
2023/06/11 14:08:49;;;;;;;5.32;4.07;;;;;;;;;;4940255;28;20098;-80
2023/06/11 14:11:16;;;;;;;6.75;4.43;;;;;;;;;;4953566;28;20379;-79
2023/06/11 14:13:51;;;;;;;7.13;4.32;;;;;;;;;;4955649;28;20031;-82
2023/06/11 14:16:17;;;;;;;5.93;4.20;;;;;;;;;;4941083;29;20039;-83
2023/06/11 14:18:46;;;;;;;7.70;4.10;;;;;;;;;;4942188;29;20039;-82
2023/06/11 14:21:12;;;;;;;7.18;4.32;;;;;;;;;;4939777;29;20055;-81
2023/06/11 14:23:42;;;;;;;6.75;4.43;;;;;;;;;;4943876;29;20027;-81
2023/06/11 14:26:14;;;;;;;7.22;5.10;;;;;;;;;;4942279;29;20028;-80
2023/06/11 14:28:39;;;;;;;4.40;3.90;;;;;;;;;;4953875;28;20027;-81
2023/06/11 14:31:14;;;;;;;6.55;4.95;;;;;;;;;;4953936;28;20133;-82
2023/06/11 14:33:40;;;;;;;9.45;4.40;;;;;;;;;;4941884;29;20113;-82
2023/06/11 14:36:07;;;;;;;5.45;4.25;;;;;;;;;;4954704;28;20062;-83
2023/06/11 14:38:33;;;;;;;6.43;4.43;;;;;;;;;;4939859;29;20029;-82
2023/06/11 14:40:59;;;;;;;6.05;4.35;;;;;;;;;;4937158;29;20055;-82
2023/06/11 14:43:25;;;;;;;5.13;4.43;;;;;;;;;;4953972;28;20126;-81
2023/06/11 14:45:54;;;;;;;8.27;4.90;;;;;;;;;;4959129;28;20097;-90
2023/06/11 14:48:20;;;;;;;7.25;4.60;;;;;;;;;;4944784;29;20042;-85
2023/06/11 14:50:46;;;;;;;8.75;4.93;;;;;;;;;;4943014;29;20480;-79
2023/06/11 14:53:12;;;;;;;6.22;4.32;;;;;;;;;;4941503;29;20028;-82